createdAt,value
2019-02-14T00:01:54.934Z,53.82
2019-02-14T00:04:23.677Z,53.79
2019-02-14T00:06:52.457Z,53.70
2019-02-14T00:09:21.202Z,53.71
2019-02-14T00:11:49.959Z,53.77
2019-02-14T00:14:18.700Z,53.76
2019-02-14T00:16:47.463Z,53.79
2019-02-14T00:19:16.273Z,53.75
2019-02-14T00:21:45.177Z,53.69
2019-02-14T00:24:13.928Z,53.74
2019-02-14T00:26:42.763Z,53.71
2019-02-14T00:29:11.503Z,53.63
2019-02-14T00:31:40.280Z,53.75
2019-02-14T00:34:09.116Z,53.77
2019-02-14T00:36:37.888Z,53.78
2019-02-14T00:39:06.783Z,53.78
2019-02-14T00:41:35.566Z,53.80
2019-02-14T00:44:04.442Z,53.78
2019-02-14T00:46:33.225Z,53.79
2019-02-14T00:49:02.113Z,53.76
2019-02-14T00:51:30.875Z,53.79
2019-02-14T00:53:59.690Z,53.66
2019-02-14T00:56:28.451Z,53.63
2019-02-14T00:58:57.271Z,53.70
2019-02-14T01:01:26.030Z,53.76
2019-02-14T01:03:54.875Z,53.78
2019-02-14T01:06:23.644Z,53.76
2019-02-14T01:08:52.453Z,53.67
2019-02-14T01:11:21.239Z,53.62
2019-02-14T01:13:49.969Z,53.60
2019-02-14T01:16:18.744Z,53.60
2019-02-14T01:18:47.484Z,53.61
2019-02-14T01:21:16.238Z,53.58
2019-02-14T01:23:45.004Z,53.60
2019-02-14T01:26:13.867Z,53.54
2019-02-14T01:28:42.598Z,53.59
2019-02-14T01:31:11.340Z,53.56
2019-02-14T01:33:40.129Z,53.56
2019-02-14T01:36:08.864Z,53.60
2019-02-14T01:38:37.634Z,53.58
2019-02-14T01:41:06.367Z,53.57
2019-02-14T01:43:35.209Z,53.61
2019-02-14T01:46:04.015Z,53.61
2019-02-14T01:48:32.821Z,53.61
2019-02-14T01:51:01.715Z,53.55
2019-02-14T01:53:30.643Z,53.52
2019-02-14T01:55:59.380Z,53.56
2019-02-14T01:58:28.282Z,53.56
2019-02-14T02:00:57.110Z,53.48
2019-02-14T02:03:25.868Z,53.42
2019-02-14T02:05:54.683Z,53.45
2019-02-14T02:08:23.444Z,53.49
2019-02-14T02:10:52.279Z,53.49
2019-02-14T02:13:21.040Z,53.49
2019-02-14T02:15:49.775Z,53.43
2019-02-14T02:18:18.895Z,53.42
2019-02-14T02:20:47.652Z,53.41
2019-02-14T02:23:16.497Z,53.31
2019-02-14T02:25:45.233Z,53.33
2019-02-14T02:28:14.013Z,53.32
2019-02-14T02:30:42.822Z,53.33
2019-02-14T02:33:11.785Z,53.33
2019-02-14T02:35:40.528Z,53.34
2019-02-14T02:38:09.317Z,53.27
2019-02-14T02:40:38.051Z,53.18
2019-02-14T02:43:06.904Z,53.13
2019-02-14T02:45:35.642Z,53.09
2019-02-14T02:48:04.409Z,53.27
2019-02-14T02:50:33.307Z,53.20
2019-02-14T02:53:02.159Z,53.21
2019-02-14T02:55:30.894Z,53.31
2019-02-14T02:57:59.740Z,53.29
2019-02-14T03:00:28.504Z,53.22
2019-02-14T03:02:57.311Z,53.41
2019-02-14T03:05:26.244Z,53.45
2019-02-14T03:07:55.031Z,53.21
2019-02-14T03:10:23.894Z,53.27
2019-02-14T03:12:52.625Z,53.29
2019-02-14T03:15:21.386Z,53.37
2019-02-14T03:17:50.276Z,53.30
2019-02-14T03:20:19.132Z,53.14
2019-02-14T03:22:47.935Z,52.95
2019-02-14T03:25:17.508Z,52.90
2019-02-14T03:27:46.335Z,53.06
2019-02-14T03:30:15.496Z,52.96
2019-02-14T03:32:44.264Z,53.02
2019-02-14T03:35:13.024Z,53.11
2019-02-14T03:37:41.913Z,53.11
2019-02-14T03:40:11.386Z,53.01
2019-02-14T03:42:40.275Z,52.98
2019-02-14T03:45:15.003Z,53.00
2019-02-14T03:47:43.837Z,53.16
2019-02-14T03:50:12.657Z,53.00
2019-02-14T03:52:41.467Z,52.91
2019-02-14T03:55:10.361Z,52.93
2019-02-14T03:57:39.195Z,52.99
2019-02-14T04:00:11.115Z,53.01
2019-02-14T04:02:39.925Z,53.02
2019-02-14T04:05:08.858Z,53.19
2019-02-14T04:07:37.673Z,53.27
2019-02-14T04:10:07.294Z,53.17
2019-02-14T04:12:36.128Z,53.15
2019-02-14T04:15:05.305Z,53.04
2019-02-14T04:17:34.038Z,53.05
2019-02-14T04:20:02.785Z,53.01
2019-02-14T04:22:31.629Z,53.09
2019-02-14T04:25:00.364Z,53.14
2019-02-14T04:27:29.132Z,53.34
2019-02-14T04:29:57.871Z,53.40
2019-02-14T04:32:26.641Z,53.23
2019-02-14T04:34:55.412Z,53.01
2019-02-14T04:37:24.252Z,52.96
2019-02-14T04:39:53.056Z,53.01
2019-02-14T04:42:21.833Z,53.00
2019-02-14T04:44:50.632Z,52.87
2019-02-14T04:47:19.471Z,52.91
2019-02-14T04:49:48.220Z,53.05
2019-02-14T04:52:17.086Z,53.06
2019-02-14T04:54:45.893Z,52.91
2019-02-14T04:57:14.732Z,52.66
2019-02-14T04:59:43.612Z,52.52
2019-02-14T05:02:12.480Z,52.67
2019-02-14T05:04:41.277Z,52.60
2019-02-14T05:07:10.108Z,52.59
2019-02-14T05:09:38.928Z,52.52
2019-02-14T05:12:07.760Z,52.50
2019-02-14T05:14:36.570Z,52.54
2019-02-14T05:17:05.411Z,52.57
2019-02-14T05:19:34.211Z,52.38
2019-02-14T05:22:02.993Z,52.36
2019-02-14T05:24:31.806Z,52.30
2019-02-14T05:27:00.729Z,52.29
2019-02-14T05:29:29.466Z,52.26
2019-02-14T05:31:58.372Z,52.29
2019-02-14T05:34:27.131Z,52.30
2019-02-14T05:36:55.965Z,52.24
2019-02-14T05:39:24.702Z,52.30
2019-02-14T05:41:53.563Z,52.19
2019-02-14T05:44:22.286Z,52.21
2019-02-14T05:46:51.102Z,52.27
2019-02-14T05:49:21.016Z,52.23
2019-02-14T05:51:49.825Z,52.24
2019-02-14T05:54:18.655Z,52.14
2019-02-14T05:56:47.401Z,52.14
2019-02-14T05:59:16.304Z,52.12
2019-02-14T06:01:45.032Z,52.12
2019-02-14T06:04:13.878Z,52.13
2019-02-14T06:06:42.696Z,52.10
2019-02-14T06:09:11.537Z,52.17
2019-02-14T06:11:40.349Z,52.13
2019-02-14T06:14:09.113Z,52.08
2019-02-14T06:16:37.942Z,52.15
2019-02-14T06:19:06.713Z,52.16
2019-02-14T06:21:35.477Z,52.08
2019-02-14T06:24:04.250Z,52.16
2019-02-14T06:26:33.053Z,52.16
2019-02-14T06:29:01.815Z,52.09
2019-02-14T06:31:30.565Z,52.21
2019-02-14T06:33:59.367Z,52.26
2019-02-14T06:36:28.170Z,52.13
2019-02-14T06:38:57.096Z,52.00
2019-02-14T06:41:27.178Z,51.96
2019-02-14T06:43:55.974Z,52.13
2019-02-14T06:46:24.740Z,51.72
2019-02-14T06:48:53.601Z,51.61
2019-02-14T06:51:22.447Z,51.62
2019-02-14T06:53:51.307Z,51.51
2019-02-14T06:56:20.140Z,51.09
2019-02-14T06:58:48.994Z,50.63
2019-02-14T07:01:17.775Z,50.07
2019-02-14T07:03:46.637Z,49.76
2019-02-14T07:06:15.647Z,49.33
2019-02-14T07:08:44.495Z,48.95
2019-02-14T07:11:13.263Z,49.63
2019-02-14T07:13:42.128Z,47.33
2019-02-14T07:16:10.961Z,48.05
2019-02-14T07:18:39.837Z,48.34
2019-02-14T07:21:08.593Z,48.52
2019-02-14T07:23:37.453Z,48.68
2019-02-14T07:26:06.307Z,48.72
2019-02-14T07:28:35.166Z,48.72
2019-02-14T07:31:04.026Z,48.73
2019-02-14T07:33:32.954Z,48.74
2019-02-14T07:36:01.741Z,48.61
2019-02-14T07:38:30.505Z,48.46
2019-02-14T07:40:59.352Z,48.29
2019-02-14T07:43:28.289Z,48.12
2019-02-14T07:45:57.136Z,47.93
2019-02-14T07:48:26.057Z,47.84
2019-02-14T07:50:54.841Z,47.72
2019-02-14T07:53:23.701Z,47.50
2019-02-14T07:55:52.519Z,46.77
2019-02-14T07:58:21.343Z,46.27
2019-02-14T08:00:50.277Z,45.94
2019-02-14T08:03:19.038Z,45.31
2019-02-14T08:05:47.853Z,45.89
2019-02-14T08:08:16.614Z,46.18
2019-02-14T08:10:45.404Z,46.58
2019-02-14T08:13:14.177Z,46.66
2019-02-14T08:15:42.985Z,46.71
2019-02-14T08:18:11.731Z,46.77
2019-02-14T08:20:40.510Z,46.80
2019-02-14T08:23:09.265Z,46.77
2019-02-14T08:25:38.047Z,46.78
2019-02-14T08:28:07.283Z,46.82
2019-02-14T08:30:36.307Z,46.83
2019-02-14T08:33:05.374Z,46.94
2019-02-14T08:35:34.442Z,46.91
2019-02-14T08:38:03.266Z,46.84
2019-02-14T08:40:32.148Z,46.84
2019-02-14T08:43:01.208Z,46.88
2019-02-14T08:45:30.059Z,46.92
2019-02-14T08:47:58.942Z,46.88
2019-02-14T08:50:28.212Z,46.92
2019-02-14T08:52:57.071Z,46.58
2019-02-14T08:55:26.029Z,46.64
2019-02-14T08:57:54.919Z,46.37
2019-02-14T09:00:23.776Z,46.06
2019-02-14T09:02:52.948Z,46.49
2019-02-14T09:05:21.862Z,46.84
2019-02-14T09:07:54.820Z,47.07
2019-02-14T09:10:21.444Z,47.36
2019-02-14T09:12:50.545Z,47.32
2019-02-14T09:15:19.684Z,47.29
2019-02-14T09:17:48.840Z,47.32
2019-02-14T09:20:17.779Z,47.33
2019-02-14T09:22:46.572Z,47.30
2019-02-14T09:25:15.322Z,47.44
2019-02-14T09:27:44.231Z,47.57
2019-02-14T09:30:13.131Z,47.63
2019-02-14T09:32:42.255Z,47.75
2019-02-14T09:35:11.031Z,47.72
2019-02-14T09:37:39.893Z,47.65
2019-02-14T09:40:10.032Z,47.76
2019-02-14T09:42:38.852Z,47.85
2019-02-14T09:45:08.750Z,47.89
2019-02-14T09:47:37.532Z,47.98
2019-02-14T09:50:07.172Z,47.58
2019-02-14T09:52:35.950Z,46.20
2019-02-14T09:55:05.287Z,46.33
2019-02-14T09:57:34.135Z,46.99
2019-02-14T10:00:02.893Z,47.37
2019-02-14T10:02:31.694Z,47.55
2019-02-14T10:05:00.435Z,47.43
2019-02-14T10:07:29.303Z,47.55
2019-02-14T10:09:58.062Z,47.68
2019-02-14T10:12:26.854Z,47.45
2019-02-14T10:14:55.610Z,47.56
2019-02-14T10:17:24.483Z,47.41
2019-02-14T10:19:53.322Z,47.47
2019-02-14T10:22:22.158Z,47.59
2019-02-14T10:24:52.555Z,47.56
2019-02-14T10:27:21.787Z,47.52
2019-02-14T10:29:50.605Z,47.86
2019-02-14T10:32:19.551Z,47.78
2019-02-14T10:34:48.434Z,47.47
2019-02-14T10:37:17.255Z,47.63
2019-02-14T10:39:46.299Z,47.61
2019-02-14T10:42:15.203Z,47.32
2019-02-14T10:44:44.140Z,47.21
2019-02-14T10:47:12.970Z,47.16
2019-02-14T10:49:41.883Z,46.97
2019-02-14T10:52:10.934Z,46.94
2019-02-14T10:54:39.772Z,46.87
2019-02-14T10:57:08.598Z,46.80
2019-02-14T10:59:37.404Z,46.69
2019-02-14T11:02:06.151Z,46.68
2019-02-14T11:04:35.000Z,46.57
2019-02-14T11:07:03.763Z,46.57
2019-02-14T11:09:32.540Z,46.61
2019-02-14T11:12:01.289Z,46.43
2019-02-14T11:14:30.057Z,46.48
2019-02-14T11:16:58.906Z,46.59
2019-02-14T11:19:27.703Z,46.72
2019-02-14T11:21:56.589Z,46.65
2019-02-14T11:24:25.430Z,46.34
2019-02-14T11:26:54.248Z,46.69
2019-02-14T11:29:23.031Z,47.32
2019-02-14T11:31:51.800Z,47.50
2019-02-14T11:34:20.653Z,47.65
2019-02-14T11:36:49.403Z,47.77
2019-02-14T11:39:18.176Z,47.78
2019-02-14T11:41:47.008Z,47.54
2019-02-14T11:44:15.894Z,47.58
2019-02-14T11:46:51.320Z,47.42
2019-02-14T11:49:15.304Z,47.52
2019-02-14T11:51:44.040Z,47.57
2019-02-14T11:54:14.107Z,47.74
2019-02-14T11:56:42.899Z,47.87
2019-02-14T11:59:11.784Z,47.93
2019-02-14T12:01:40.611Z,48.09
2019-02-14T12:04:09.469Z,47.80
2019-02-14T12:06:38.242Z,46.70
2019-02-14T12:09:07.133Z,46.47
2019-02-14T12:11:35.886Z,46.54
2019-02-14T12:14:04.748Z,46.72
2019-02-14T12:16:33.591Z,46.94
2019-02-14T12:19:02.441Z,46.83
2019-02-14T12:21:31.190Z,46.89
2019-02-14T12:24:01.647Z,46.97
2019-02-14T12:26:30.573Z,47.11
2019-02-14T12:28:59.529Z,47.17
2019-02-14T12:31:28.376Z,47.04
2019-02-14T12:34:01.576Z,47.08
2019-02-14T12:36:30.484Z,47.15
2019-02-14T12:38:59.207Z,47.13
2019-02-14T12:41:27.993Z,47.14
2019-02-14T12:43:56.845Z,47.25
2019-02-14T12:46:25.851Z,47.32
2019-02-14T12:48:54.606Z,47.27
2019-02-14T12:51:23.481Z,47.37
2019-02-14T12:53:52.305Z,47.37
2019-02-14T12:56:22.893Z,47.45
2019-02-14T12:58:51.758Z,47.36
2019-02-14T13:01:22.016Z,47.34
2019-02-14T13:03:50.853Z,47.48
2019-02-14T13:06:19.741Z,47.56
2019-02-14T13:08:49.045Z,47.54
2019-02-14T13:11:18.547Z,47.47
2019-02-14T13:13:49.981Z,47.40
2019-02-14T13:16:19.153Z,47.26
2019-02-14T13:18:48.227Z,47.30
2019-02-14T13:21:17.286Z,47.28
2019-02-14T13:23:46.041Z,47.30
2019-02-14T13:26:14.932Z,47.36
2019-02-14T13:28:44.207Z,47.37
2019-02-14T13:31:12.981Z,47.33
2019-02-14T13:33:41.802Z,47.34
2019-02-14T13:36:10.597Z,47.08
2019-02-14T13:38:39.500Z,46.95
2019-02-14T13:41:08.264Z,46.83
2019-02-14T13:43:37.107Z,46.74
2019-02-14T13:46:05.872Z,46.74
2019-02-14T13:48:34.610Z,46.80
2019-02-14T13:51:03.378Z,46.91
2019-02-14T13:53:32.112Z,47.07
2019-02-14T13:56:00.890Z,47.22
2019-02-14T13:58:29.714Z,47.06
2019-02-14T14:00:58.500Z,47.01
2019-02-14T14:03:27.241Z,47.06
2019-02-14T14:05:55.999Z,47.07
2019-02-14T14:08:24.736Z,47.00
2019-02-14T14:10:53.495Z,47.09
2019-02-14T14:13:22.245Z,47.02
2019-02-14T14:15:51.041Z,46.89
2019-02-14T14:18:19.794Z,47.07
2019-02-14T14:20:48.611Z,47.02
2019-02-14T14:23:17.450Z,46.85
2019-02-14T14:25:46.318Z,46.94
2019-02-14T14:28:21.212Z,46.89
2019-02-14T14:30:55.923Z,46.82
2019-02-14T14:33:24.658Z,46.79
2019-02-14T14:35:53.519Z,46.74
2019-02-14T14:38:22.344Z,46.80
2019-02-14T14:40:51.165Z,46.73
2019-02-14T14:43:39.014Z,46.60
2019-02-14T14:46:12.440Z,46.61
2019-02-14T14:48:44.327Z,46.52
2019-02-14T14:51:13.146Z,46.51
2019-02-14T14:53:41.954Z,46.37
2019-02-14T14:56:10.783Z,46.22
2019-02-14T14:58:39.785Z,46.18
2019-02-14T15:01:08.501Z,45.94
2019-02-14T15:03:37.339Z,45.81
2019-02-14T15:06:06.097Z,45.64
2019-02-14T15:08:34.942Z,45.39
2019-02-14T15:11:03.762Z,45.30
2019-02-14T15:13:32.602Z,45.03
2019-02-14T15:16:01.440Z,44.79
2019-02-14T15:18:30.213Z,44.61
2019-02-14T15:20:58.997Z,44.43
2019-02-14T15:23:27.845Z,44.20
2019-02-14T15:25:56.590Z,43.96
2019-02-14T15:28:25.369Z,43.90
2019-02-14T15:30:54.109Z,43.80
2019-02-14T15:33:22.869Z,43.73
2019-02-14T15:35:51.611Z,43.80
2019-02-14T15:38:20.373Z,44.21
2019-02-14T15:40:49.112Z,44.70
2019-02-14T15:43:17.910Z,45.24
2019-02-14T15:45:46.801Z,45.73
2019-02-14T15:48:15.655Z,46.17
2019-02-14T15:50:44.575Z,46.53
2019-02-14T15:53:13.450Z,46.76
2019-02-14T15:55:43.835Z,47.02
2019-02-14T15:58:11.894Z,47.20
2019-02-14T16:00:40.678Z,47.40
2019-02-14T16:03:09.864Z,47.59
2019-02-14T16:05:40.251Z,47.64
2019-02-14T16:08:09.153Z,47.79
2019-02-14T16:10:38.023Z,47.90
2019-02-14T16:13:09.773Z,48.05
2019-02-14T16:15:38.678Z,48.08
2019-02-14T16:18:07.721Z,48.12
2019-02-14T16:20:36.463Z,48.22
2019-02-14T16:23:06.431Z,48.30
2019-02-14T16:25:36.030Z,48.37
2019-02-14T16:28:05.147Z,48.44
2019-02-14T16:30:33.983Z,48.52
2019-02-14T16:33:02.835Z,48.59
2019-02-14T16:35:31.606Z,48.63
2019-02-14T16:38:00.415Z,48.72
2019-02-14T16:40:38.007Z,48.78
2019-02-14T16:42:59.729Z,48.78
2019-02-14T16:45:28.544Z,48.89
2019-02-14T16:47:57.510Z,48.90
2019-02-14T16:50:26.281Z,48.91
2019-02-14T16:52:55.168Z,48.91
2019-02-14T16:55:24.008Z,48.97
2019-02-14T16:57:52.745Z,49.00
2019-02-14T17:00:21.518Z,48.98
2019-02-14T17:02:50.432Z,49.09
2019-02-14T17:05:19.700Z,49.18
2019-02-14T17:07:48.637Z,49.24
2019-02-14T17:10:17.402Z,49.26
2019-02-14T17:12:46.284Z,49.21
2019-02-14T17:15:15.273Z,49.24
2019-02-14T17:17:44.046Z,49.26
2019-02-14T17:20:12.976Z,49.30
2019-02-14T17:22:41.874Z,49.35
2019-02-14T17:25:10.637Z,49.39
2019-02-14T17:27:39.404Z,49.40
2019-02-14T17:30:08.631Z,49.41
2019-02-14T17:32:37.676Z,49.38
2019-02-14T17:35:06.580Z,49.41
2019-02-14T17:37:35.391Z,49.39
2019-02-14T17:40:04.849Z,49.43
2019-02-14T17:42:33.743Z,49.51
2019-02-14T17:45:02.600Z,49.49
2019-02-14T17:47:31.348Z,49.42
2019-02-14T17:50:00.383Z,49.42
2019-02-14T17:52:29.180Z,49.45
2019-02-14T17:54:58.659Z,49.44
2019-02-14T17:57:28.039Z,49.42
2019-02-14T17:59:57.377Z,49.37
2019-02-14T18:02:28.591Z,49.44
2019-02-14T18:04:57.887Z,49.48
2019-02-14T18:07:28.174Z,49.43
2019-02-14T18:09:57.629Z,49.45
2019-02-14T18:12:27.026Z,49.49
2019-02-14T18:14:56.702Z,49.54
2019-02-14T18:17:25.754Z,49.69
2019-02-14T18:20:02.219Z,49.58
2019-02-14T18:22:31.417Z,49.62
2019-02-14T18:25:00.331Z,49.54
2019-02-14T18:27:29.066Z,49.58
2019-02-14T18:29:57.908Z,49.55
2019-02-14T18:32:26.733Z,49.49
2019-02-14T18:34:55.552Z,49.48
2019-02-14T18:37:24.433Z,49.45
2019-02-14T18:39:53.229Z,49.42
2019-02-14T18:42:22.057Z,49.45
2019-02-14T18:44:50.981Z,49.48
2019-02-14T18:47:19.853Z,49.48
2019-02-14T18:49:48.645Z,49.43
2019-02-14T18:52:17.635Z,49.49
2019-02-14T18:54:46.505Z,49.45
2019-02-14T18:57:15.467Z,49.42
2019-02-14T18:59:44.355Z,49.45
2019-02-14T19:02:13.176Z,49.35
2019-02-14T19:04:42.022Z,49.39
2019-02-14T19:07:10.990Z,49.37
2019-02-14T19:09:40.503Z,49.43
2019-02-14T19:12:09.552Z,49.38
2019-02-14T19:14:38.504Z,49.32
2019-02-14T19:17:07.418Z,49.34
2019-02-14T19:19:36.515Z,49.44
2019-02-14T19:22:05.413Z,49.37
2019-02-14T19:24:34.366Z,49.33
2019-02-14T19:27:03.223Z,49.27
2019-02-14T19:29:32.001Z,49.27
2019-02-14T19:32:00.780Z,49.25
2019-02-14T19:34:29.752Z,49.28
2019-02-14T19:36:58.612Z,49.26
2019-02-14T19:39:27.559Z,49.20
2019-02-14T19:41:56.365Z,49.24
2019-02-14T19:44:25.397Z,49.23
2019-02-14T19:46:54.243Z,49.32
2019-02-14T19:49:23.150Z,49.37
2019-02-14T19:51:52.043Z,49.29
2019-02-14T19:54:20.970Z,49.25
2019-02-14T19:56:49.832Z,49.20
2019-02-14T19:59:18.752Z,49.20
2019-02-14T20:01:47.661Z,49.26
2019-02-14T20:04:16.599Z,49.31
2019-02-14T20:06:45.549Z,49.26
2019-02-14T20:09:15.458Z,49.22
2019-02-14T20:11:44.373Z,49.25
2019-02-14T20:14:13.307Z,49.39
2019-02-14T20:16:42.406Z,49.34
2019-02-14T20:19:11.298Z,49.32
2019-02-14T20:21:40.352Z,49.31
2019-02-14T20:24:09.349Z,49.31
2019-02-14T20:26:38.307Z,49.36
2019-02-14T20:29:07.224Z,49.39
2019-02-14T20:31:36.194Z,49.40
2019-02-14T20:34:04.951Z,49.29
2019-02-14T20:36:33.819Z,49.30
2019-02-14T20:39:02.931Z,49.32
2019-02-14T20:41:46.025Z,49.30
2019-02-14T20:44:10.642Z,49.29
2019-02-14T20:46:39.572Z,49.28
2019-02-14T20:49:08.444Z,49.30
2019-02-14T20:51:38.709Z,49.29
2019-02-14T20:54:06.803Z,49.35
2019-02-14T20:56:35.952Z,49.32
2019-02-14T20:59:04.863Z,49.34
2019-02-14T21:01:33.717Z,49.23
2019-02-14T21:04:02.668Z,49.25
2019-02-14T21:06:31.568Z,49.23
2019-02-14T21:09:00.404Z,49.19
2019-02-14T21:11:29.396Z,49.13
2019-02-14T21:13:58.137Z,49.17
2019-02-14T21:16:26.999Z,49.24
2019-02-14T21:18:55.828Z,49.22
2019-02-14T21:21:24.640Z,49.20
2019-02-14T21:23:53.391Z,49.12
2019-02-14T21:26:22.265Z,49.13
2019-02-14T21:28:51.195Z,49.13
2019-02-14T21:31:19.965Z,49.05
2019-02-14T21:33:48.872Z,49.09
2019-02-14T21:36:17.678Z,49.05
2019-02-14T21:38:46.442Z,49.05
2019-02-14T21:41:15.190Z,49.03
2019-02-14T21:43:44.121Z,48.97
2019-02-14T21:46:13.192Z,48.94
2019-02-14T21:48:42.102Z,49.03
2019-02-14T21:51:11.079Z,48.90
2019-02-14T21:53:40.208Z,48.92
2019-02-14T21:56:09.477Z,49.01
2019-02-14T21:58:38.663Z,48.94
2019-02-14T22:01:07.754Z,48.80
2019-02-14T22:03:36.596Z,48.63
2019-02-14T22:06:05.404Z,48.73
2019-02-14T22:08:37.294Z,48.62
2019-02-14T22:11:06.257Z,48.76
2019-02-14T22:13:35.084Z,48.52
2019-02-14T22:16:05.102Z,48.59
2019-02-14T22:18:33.868Z,48.52
2019-02-14T22:21:02.608Z,48.56
2019-02-14T22:23:31.374Z,48.44
2019-02-14T22:26:00.112Z,48.54
2019-02-14T22:28:28.881Z,48.57
2019-02-14T22:30:57.792Z,48.48
2019-02-14T22:33:26.571Z,48.47
2019-02-14T22:35:55.394Z,48.51
2019-02-14T22:38:24.220Z,48.33
2019-02-14T22:40:53.114Z,48.36
2019-02-14T22:43:21.933Z,48.41
2019-02-14T22:45:50.693Z,48.40
2019-02-14T22:48:19.551Z,48.48
2019-02-14T22:50:48.298Z,48.44
2019-02-14T22:53:17.143Z,48.39
2019-02-14T22:55:45.904Z,48.26
2019-02-14T22:58:14.738Z,48.24
2019-02-14T23:00:50.866Z,48.33
2019-02-14T23:03:19.633Z,48.25
2019-02-14T23:05:48.386Z,48.13
2019-02-14T23:08:17.393Z,48.22
2019-02-14T23:10:46.161Z,48.20
2019-02-14T23:13:14.960Z,48.18
2019-02-14T23:15:43.834Z,48.01
2019-02-14T23:18:12.713Z,48.04
2019-02-14T23:20:41.469Z,48.11
2019-02-14T23:23:10.415Z,48.33
2019-02-14T23:25:39.160Z,48.11
2019-02-14T23:28:08.110Z,48.20
2019-02-14T23:30:37.005Z,48.21
2019-02-14T23:33:05.789Z,48.11
2019-02-14T23:35:34.606Z,48.16
2019-02-14T23:38:03.897Z,48.10
2019-02-14T23:40:32.661Z,48.04
2019-02-14T23:43:04.774Z,47.81
2019-02-14T23:45:32.128Z,48.21
2019-02-14T23:48:00.948Z,48.17
2019-02-14T23:50:29.799Z,48.25
2019-02-14T23:52:58.837Z,48.06
2019-02-14T23:55:27.711Z,48.33
2019-02-14T23:57:56.540Z,48.19
